Time;durP1;ratioP1;P1;durP2;ratioP2;P2;SDS_P1;SDS_P2;PMS_P1;PMS_P2;Temp;Humidity;BMP_temperature;BMP_pressure;BME280_temperature;BME280_humidity;BME280_pressure;Samples;Min_cycle;Max_cycle;Signal;HPM_P1;HPM_P2
2023/05/07 00:00:56;;;;;;;7.90;6.70;;;;;;;7.47;74.16;100939.99;108858;1281;21993;-80
2023/05/07 00:03:28;;;;;;;9.40;6.70;;;;;;;7.47;74.19;100939.33;108657;1281;22031;-80
2023/05/07 00:05:58;;;;;;;9.00;7.30;;;;;;;7.47;74.20;100943.13;108858;1275;21995;-79
2023/05/07 00:08:27;;;;;;;10.00;7.90;;;;;;;7.45;74.12;100939.34;108993;1277;22007;-80
2023/05/07 00:10:58;;;;;;;9.00;8.10;;;;;;;7.45;74.25;100940.55;109306;1272;23760;-80
2023/05/07 00:13:30;;;;;;;8.20;7.40;;;;;;;7.46;74.28;100941.22;109488;1272;23734;-81
2023/05/07 00:15:59;;;;;;;9.60;8.40;;;;;;;7.47;74.25;100939.80;109725;1267;21985;-81
2023/05/07 00:18:31;;;;;;;8.60;7.70;;;;;;;7.49;74.28;100945.34;109922;1267;23741;-81
2023/05/07 00:21:03;;;;;;;9.60;7.30;;;;;;;7.46;74.12;100941.40;109535;1272;21982;-81
2023/05/07 00:23:33;;;;;;;10.00;9.00;;;;;;;7.45;74.15;100943.31;109537;1272;22991;-80
2023/05/07 00:26:04;;;;;;;9.60;8.70;;;;;;;7.47;74.15;100944.85;109696;1272;22070;-81
2023/05/07 00:28:39;;;;;;;10.70;9.70;;;;;;;7.48;74.19;100946.05;109422;1271;21998;-82
2023/05/07 00:31:09;;;;;;;10.20;9.00;;;;;;;7.50;74.25;100941.85;109673;1272;23169;-81
2023/05/07 00:33:39;;;;;;;13.40;9.20;;;;;;;7.52;74.42;100941.64;108986;1278;22090;-81
2023/05/07 00:36:10;;;;;;;10.20;9.20;;;;;;;7.53;74.31;100943.18;108979;1278;21989;-80
2023/05/07 00:38:43;;;;;;;10.30;9.30;;;;;;;7.52;74.08;100945.11;109139;1273;22483;-81
2023/05/07 00:41:12;;;;;;;9.90;9.00;;;;;;;7.50;73.98;100947.23;109184;1278;23213;-79
2023/05/07 00:43:54;;;;;;;11.70;9.60;;;;;;;7.50;73.98;100955.53;108979;1279;22344;-80
2023/05/07 00:46:28;;;;;;;;;;;;;;;7.49;74.09;100959.36;109015;1282;21971;-81
2023/05/07 00:48:59;;;;;;;12.50;9.50;;;;;;;7.39;74.38;100954.66;109009;1280;22433;-83
2023/05/07 00:51:29;;;;;;;11.00;9.70;;;;;;;7.40;74.32;100959.84;108999;1277;22978;-79
2023/05/07 00:54:02;;;;;;;9.50;8.60;;;;;;;7.42;74.41;100960.67;108850;1282;21957;-78
2023/05/07 00:56:34;;;;;;;13.10;10.10;;;;;;;7.45;74.30;100963.06;108898;1280;22020;-79
2023/05/07 00:59:06;;;;;;;10.10;8.80;;;;;;;7.43;74.16;100964.11;108775;1277;22752;-79
2023/05/07 01:01:41;;;;;;;10.10;9.10;;;;;;;7.41;74.18;100964.67;108956;1278;22033;-78
2023/05/07 01:04:18;;;;;;;;;;;;;;;7.41;74.30;100962.77;108961;1273;23806;-79
2023/05/07 01:06:56;;;;;;;10.90;10.10;;;;;;;7.32;74.74;100961.86;109209;1278;22386;-80
2023/05/07 01:09:29;;;;;;;10.50;9.50;;;;;;;7.32;74.57;100968.96;109186;1278;22000;-80
2023/05/07 01:12:02;;;;;;;12.00;10.90;;;;;;;7.32;74.69;100968.11;108974;1278;22007;-80
2023/05/07 01:14:39;;;;;;;9.10;8.40;;;;;;;7.35;74.81;100964.94;109087;1278;23605;-80
2023/05/07 01:17:12;;;;;;;11.30;10.30;;;;;;;7.38;74.76;100968.02;109159;1278;22000;-80
2023/05/07 01:19:42;;;;;;;11.60;10.50;;;;;;;7.40;74.70;100967.63;109348;1274;22496;-80
2023/05/07 01:22:11;;;;;;;10.40;9.40;;;;;;;7.41;74.78;100968.48;109341;1274;23046;-80
2023/05/07 01:24:51;;;;;;;12.50;11.30;;;;;;;7.42;74.80;100968.63;109691;1268;22644;-80
2023/05/07 01:27:19;;;;;;;12.10;10.90;;;;;;;7.42;74.72;100970.89;110474;1267;21976;-80
2023/05/07 01:29:49;;;;;;;13.20;11.70;;;;;;;7.42;74.76;100966.73;109890;1267;22009;-79
2023/05/07 01:32:31;;;;;;;12.20;11.10;;;;;;;7.44;74.91;100964.63;110267;1267;21974;-80
2023/05/07 01:35:09;;;;;;;12.20;10.90;;;;;;;7.46;74.87;100969.27;109969;1267;21978;-82
2023/05/07 01:37:42;;;;;;;10.90;9.90;;;;;;;7.48;74.73;100976.00;109809;1267;21978;-81
2023/05/07 01:40:11;;;;;;;12.30;10.60;;;;;;;7.46;74.76;100976.90;110193;1267;22031;-81
2023/05/07 01:42:48;;;;;;;11.90;10.80;;;;;;;7.44;74.82;100976.73;110058;1267;21990;-83
2023/05/07 01:45:17;;;;;;;11.80;10.40;;;;;;;7.42;74.94;100979.04;109571;1271;21987;-80
2023/05/07 01:47:46;;;;;;;12.80;11.20;;;;;;;7.41;74.99;100982.67;109491;1271;21989;-80
2023/05/07 01:50:21;;;;;;;11.00;9.70;;;;;;;7.41;75.00;100987.19;109562;1271;22919;-80
2023/05/07 01:52:51;;;;;;;11.50;9.80;;;;;;;7.38;74.98;100981.34;109619;1271;22044;-80
2023/05/07 01:55:22;;;;;;;12.20;9.60;;;;;;;7.36;74.97;100986.05;109703;1271;23087;-80
2023/05/07 01:57:57;;;;;;;9.40;8.50;;;;;;;7.33;75.04;100990.23;109626;1271;21978;-80
2023/05/07 02:00:32;;;;;;;11.30;9.30;;;;;;;7.31;75.14;100986.29;109719;1271;22039;-81
2023/05/07 02:03:04;;;;;;;10.60;9.60;;;;;;;7.30;75.21;100987.69;109821;1267;22166;-81
2023/05/07 02:05:42;;;;;;;10.00;9.00;;;;;;;7.27;75.11;100988.60;110257;1267;21976;-80
2023/05/07 02:08:39;;;;;;;10.50;8.90;;;;;;;7.23;75.18;100992.29;110251;1267;21982;-79
2023/05/07 02:11:27;;;;;;;9.80;8.90;;;;;;;7.24;75.40;100994.35;110151;1267;21984;-79
2023/05/07 02:13:58;;;;;;;10.90;9.70;;;;;;;7.28;75.43;100991.00;109981;1267;22259;-80
2023/05/07 02:16:35;;;;;;;10.10;8.70;;;;;;;7.31;75.44;100989.75;109799;1271;23718;-78
2023/05/07 02:19:16;;;;;;;10.20;8.50;;;;;;;7.31;75.26;100992.17;109535;1271;22999;-80
2023/05/07 02:21:48;;;;;;;10.80;8.40;;;;;;;7.28;75.13;100988.92;109680;1271;22009;-79
2023/05/07 02:24:23;;;;;;;10.30;8.20;;;;;;;7.26;75.09;100991.55;109724;1271;22000;-80
2023/05/07 02:26:56;;;;;;;8.50;7.70;;;;;;;7.23;75.18;100991.06;109894;1271;21985;-80
2023/05/07 02:29:29;;;;;;;8.40;7.30;;;;;;;7.23;75.15;100995.75;109718;1268;22434;-78
2023/05/07 02:31:58;;;;;;;9.70;8.50;;;;;;;7.23;75.12;100995.56;109543;1271;21997;-80
2023/05/07 02:34:30;;;;;;;11.70;8.10;;;;;;;7.23;75.10;100992.62;109328;1272;23602;-78
2023/05/07 02:37:01;;;;;;;10.30;8.90;;;;;;;7.23;75.22;100991.93;109564;1272;22777;-78
2023/05/07 02:39:33;;;;;;;;;;;;;;;7.25;75.16;100990.18;109756;1272;23935;-79
2023/05/07 02:42:05;;;;;;;10.40;9.10;;;;;;;7.17;75.26;100992.55;109753;1271;22452;-79
2023/05/07 02:44:35;;;;;;;9.30;8.30;;;;;;;7.15;75.17;100994.81;109555;1272;21977;-79
2023/05/07 02:47:09;;;;;;;10.70;9.10;;;;;;;7.16;75.14;100996.72;108829;1279;21995;-80
2023/05/07 02:49:46;;;;;;;10.40;9.50;;;;;;;7.12;74.99;100997.79;109008;1279;23126;-79
2023/05/07 02:52:18;;;;;;;8.80;7.90;;;;;;;7.10;75.15;100996.27;108667;1282;21994;-78
2023/05/07 02:54:47;;;;;;;9.40;8.50;;;;;;;7.11;75.07;100994.36;108857;1283;23011;-78
2023/05/07 02:57:19;;;;;;;10.20;8.70;;;;;;;7.11;75.05;100996.27;108755;1282;22082;-79
2023/05/07 02:59:47;;;;;;;9.70;8.70;;;;;;;7.14;75.13;100999.86;109099;1279;23049;-80
2023/05/07 03:02:29;;;;;;;8.10;7.30;;;;;;;7.17;75.11;101006.91;108668;1283;22000;-79
2023/05/07 03:04:58;;;;;;;10.50;9.00;;;;;;;7.16;75.07;101006.76;108862;1278;22100;-79
2023/05/07 03:07:34;;;;;;;10.70;9.10;;;;;;;7.17;75.08;101006.92;109348;1278;21989;-79
2023/05/07 03:10:04;;;;;;;;;;;;;;;7.18;74.91;101008.29;109382;1274;22756;-79
2023/05/07 03:12:38;;;;;;;11.90;8.90;;;;;;;7.11;75.07;101006.13;109533;1274;22007;-81
2023/05/07 03:15:12;;;;;;;9.10;8.20;;;;;;;7.09;75.15;101008.05;109515;1274;22103;-82
2023/05/07 03:17:44;;;;;;;10.30;9.30;;;;;;;7.10;75.09;101011.84;109496;1274;23048;-78
2023/05/07 03:20:13;;;;;;;10.20;9.00;;;;;;;7.10;74.92;101015.31;109288;1268;21966;-79
2023/05/07 03:22:46;;;;;;;10.70;9.70;;;;;;;7.12;74.97;101018.92;110156;1267;22092;-80
2023/05/07 03:25:15;;;;;;;10.50;8.20;;;;;;;7.14;74.91;101025.47;110035;1267;23042;-80
2023/05/07 03:27:45;;;;;;;8.50;7.70;;;;;;;7.16;74.91;101032.38;109512;1273;22030;-79
2023/05/07 03:30:15;;;;;;;9.80;8.10;;;;;;;7.17;74.77;101038.23;109204;1278;22185;-79
2023/05/07 03:32:44;;;;;;;9.90;8.20;;;;;;;7.16;74.79;101037.21;109027;1278;23864;-79
2023/05/07 03:35:14;;;;;;;9.50;8.60;;;;;;;7.13;74.61;101036.74;109194;1278;23087;-79
2023/05/07 03:37:46;;;;;;;9.70;8.00;;;;;;;7.14;74.56;101038.80;108961;1278;21996;-78
2023/05/07 03:40:22;;;;;;;12.20;7.60;;;;;;;7.09;74.60;101038.17;109037;1278;22991;-79
2023/05/07 03:42:54;;;;;;;9.30;6.90;;;;;;;7.09;74.58;101038.69;108791;1278;23711;-78
2023/05/07 03:45:26;;;;;;;8.80;7.30;;;;;;;7.05;74.69;101038.73;108856;1279;21989;-79
2023/05/07 03:48:09;;;;;;;9.70;7.90;;;;;;;7.06;74.53;101042.36;109078;1275;22004;-80
2023/05/07 03:50:38;;;;;;;8.00;7.20;;;;;;;7.06;74.51;101043.91;109532;1275;22747;-80
2023/05/07 03:53:10;;;;;;;9.30;8.20;;;;;;;7.05;74.49;101047.55;109465;1275;21996;-80
2023/05/07 03:55:45;;;;;;;9.60;7.60;;;;;;;7.07;74.49;101053.42;109434;1276;22453;-79
2023/05/07 03:58:16;;;;;;;9.10;7.50;;;;;;;7.10;74.34;101053.91;109439;1276;22013;-78
2023/05/07 04:00:46;;;;;;;9.70;7.90;;;;;;;7.09;74.27;101056.67;108959;1279;21998;-77
2023/05/07 04:03:21;;;;;;;9.20;8.20;;;;;;;7.09;74.34;101058.60;109073;1272;21986;-77
2023/05/07 04:05:49;;;;;;;8.90;7.40;;;;;;;7.08;74.21;101061.38;109321;1272;21989;-79
2023/05/07 04:08:18;;;;;;;10.50;7.40;;;;;;;7.08;74.35;101058.42;109238;1272;23081;-80
2023/05/07 04:10:59;;;;;;;8.20;7.40;;;;;;;7.11;74.11;101062.71;109537;1272;22468;-80
2023/05/07 04:13:36;;;;;;;;;;;;;;;7.11;74.35;101067.05;109208;1273;23723;-81
2023/05/07 04:16:08;;;;;;;8.20;6.80;;;;;;;7.04;74.55;101071.64;109385;1274;21997;-80
2023/05/07 04:18:38;;;;;;;9.10;7.60;;;;;;;7.04;74.50;101074.57;109571;1269;21975;-80
2023/05/07 04:21:19;;;;;;;8.50;7.50;;;;;;;7.08;74.46;101077.30;109992;1269;21981;-81
2023/05/07 04:23:58;;;;;;;12.30;8.00;;;;;;;7.13;74.38;101080.19;110004;1270;21968;-79
2023/05/07 04:26:30;;;;;;;9.70;7.50;;;;;;;7.14;74.22;101082.94;110077;1269;23114;-80
2023/05/07 04:28:59;;;;;;;10.30;7.20;;;;;;;7.17;74.20;101083.77;110069;1269;22890;-81
2023/05/07 04:31:35;;;;;;;9.10;8.20;;;;;;;7.21;74.18;101087.19;109940;1269;23019;-79
2023/05/07 04:34:04;;;;;;;19.20;14.80;;;;;;;7.23;73.97;101096.85;110102;1269;23104;-80
2023/05/07 04:36:34;;;;;;;13.90;10.60;;;;;;;7.23;73.86;101101.00;109934;1269;21981;-80
2023/05/07 04:39:06;;;;;;;13.70;11.30;;;;;;;7.24;73.83;101104.11;109462;1275;22988;-79
2023/05/07 04:41:37;;;;;;;10.00;8.50;;;;;;;7.25;73.84;101105.65;109254;1275;21996;-81
2023/05/07 04:44:10;;;;;;;8.20;7.50;;;;;;;7.26;73.63;101109.63;109441;1275;21991;-79
2023/05/07 04:46:40;;;;;;;8.30;7.20;;;;;;;7.25;73.66;101113.10;109625;1275;22008;-78
2023/05/07 04:49:09;;;;;;;8.30;6.20;;;;;;;7.27;73.66;101115.50;109087;1275;23765;-79
2023/05/07 04:51:38;;;;;;;9.00;6.80;;;;;;;7.28;73.51;101113.76;109302;1269;22010;-80
2023/05/07 04:54:18;;;;;;;7.60;6.10;;;;;;;7.28;73.36;101111.86;109483;1275;21991;-80
2023/05/07 04:56:50;;;;;;;7.40;5.70;;;;;;;7.27;73.39;101119.48;109032;1275;23715;-78
2023/05/07 04:59:24;;;;;;;6.80;6.10;;;;;;;7.24;73.16;101123.14;109558;1275;21995;-79
2023/05/07 05:02:00;;;;;;;6.20;5.60;;;;;;;7.24;73.28;101128.00;109217;1276;22037;-80
2023/05/07 05:04:32;;;;;;;10.90;6.60;;;;;;;7.25;73.34;101131.98;108827;1279;22001;-77
2023/05/07 05:07:04;;;;;;;8.30;6.50;;;;;;;7.27;73.17;101134.20;108726;1283;21996;-79
2023/05/07 05:09:34;;;;;;;6.20;5.70;;;;;;;7.29;73.18;101132.98;108592;1271;22016;-80
2023/05/07 05:12:07;;;;;;;6.40;5.60;;;;;;;7.33;73.04;101133.95;108905;1283;22329;-81
2023/05/07 05:14:36;;;;;;;;;;;;;;;7.35;72.97;101130.30;108902;1276;23111;-82
2023/05/07 05:17:05;;;;;;;10.40;7.40;;;;;;;7.30;73.15;101127.59;108943;1282;22008;-80
2023/05/07 05:19:41;;;;;;;7.40;6.00;;;;;;;7.32;73.21;101124.78;108765;1282;22023;-80
2023/05/07 05:22:10;;;;;;;7.90;6.20;;;;;;;7.41;72.78;101125.89;109000;1279;22724;-86
2023/05/07 05:24:40;;;;;;;10.20;7.10;;;;;;;7.44;73.00;101128.97;109047;1281;22090;-80
2023/05/07 05:27:09;;;;;;;7.40;6.50;;;;;;;7.51;72.87;101131.48;109031;1280;23074;-81
2023/05/07 05:29:39;;;;;;;6.70;5.90;;;;;;;7.53;72.43;101134.39;108978;1280;22017;-80
2023/05/07 05:32:11;;;;;;;9.60;7.30;;;;;;;7.55;72.34;101134.73;109170;1275;21984;-79
2023/05/07 05:34:45;;;;;;;7.40;6.60;;;;;;;7.60;72.48;101135.86;109634;1270;21989;-79
2023/05/07 05:37:14;;;;;;;10.50;6.40;;;;;;;7.63;72.27;101139.48;109692;1264;21990;-78
2023/05/07 05:39:44;;;;;;;7.10;6.40;;;;;;;7.64;72.02;101149.16;109818;1269;22733;-80
2023/05/07 05:42:16;;;;;;;7.30;6.50;;;;;;;7.66;71.95;101151.39;109483;1273;22027;-80
2023/05/07 05:44:45;;;;;;;9.60;6.50;;;;;;;7.64;71.82;101156.95;109457;1275;22044;-79
2023/05/07 05:47:17;;;;;;;8.30;5.90;;;;;;;7.66;72.08;101157.79;109368;1274;22010;-79
2023/05/07 05:49:51;;;;;;;8.90;6.70;;;;;;;7.70;71.81;101165.02;109438;1275;22331;-80
2023/05/07 05:52:23;;;;;;;;;;;;;;;7.68;71.73;101167.64;109285;1275;22416;-80
2023/05/07 05:54:59;;;;;;;7.60;6.80;;;;;;;7.60;71.90;101165.31;109208;1271;23631;-80
2023/05/07 05:57:35;;;;;;;8.90;7.10;;;;;;;7.64;71.89;101164.40;109495;1268;21988;-80
2023/05/07 06:00:08;;;;;;;10.80;7.90;;;;;;;7.67;71.73;101169.23;109700;1269;22306;-82
2023/05/07 06:02:48;;;;;;;7.60;6.90;;;;;;;7.66;71.56;101174.95;109911;1269;23036;-80
2023/05/07 06:05:21;;;;;;;6.10;4.90;;;;;;;7.65;71.41;101176.52;110055;1270;21985;-80
2023/05/07 06:07:51;;;;;;;6.50;5.80;;;;;;;7.63;71.30;101176.54;109672;1268;21982;-80
2023/05/07 06:10:20;;;;;;;5.60;5.10;;;;;;;7.62;71.17;101181.76;109506;1273;22878;-80
2023/05/07 06:12:48;;;;;;;6.30;5.10;;;;;;;7.60;71.05;101186.96;109407;1270;21996;-80
2023/05/07 06:15:21;;;;;;;7.80;6.30;;;;;;;7.59;71.13;101192.54;109490;1274;21970;-80
2023/05/07 06:17:58;;;;;;;6.10;5.30;;;;;;;7.61;71.05;101194.24;109070;1278;22083;-80
2023/05/07 06:20:28;;;;;;;6.40;5.40;;;;;;;7.64;70.98;101194.20;109016;1273;23752;-81
2023/05/07 06:23:12;;;;;;;9.50;5.10;;;;;;;7.61;70.80;101195.63;109011;1277;22201;-80
2023/05/07 06:25:49;;;;;;;6.10;5.40;;;;;;;7.62;70.83;101191.63;108890;1275;22017;-79
2023/05/07 06:28:20;;;;;;;7.20;5.70;;;;;;;7.62;70.79;101190.42;109270;1275;22013;-80
2023/05/07 06:30:49;;;;;;;12.50;6.40;;;;;;;7.66;70.90;101195.91;109341;1263;22010;-81
2023/05/07 06:33:22;;;;;;;6.30;4.60;;;;;;;7.74;71.10;101197.55;109335;1274;22021;-79
2023/05/07 06:35:54;;;;;;;6.70;4.90;;;;;;;7.79;70.87;101201.28;109169;1275;21985;-80
2023/05/07 06:38:25;;;;;;;7.60;5.40;;;;;;;7.83;70.57;101204.54;109496;1275;24342;-79
2023/05/07 06:41:01;;;;;;;7.20;4.60;;;;;;;7.87;70.68;101204.81;109363;1275;21983;-80
2023/05/07 06:43:35;;;;;;;5.20;4.70;;;;;;;7.90;70.28;101202.20;109443;1276;22075;-80
2023/05/07 06:46:24;;;;;;;6.20;4.70;;;;;;;7.92;70.25;101204.95;109418;1273;22993;-80
2023/05/07 06:48:53;;;;;;;7.00;5.00;;;;;;;7.89;70.06;101209.14;108997;1275;311029;-80
2023/05/07 06:51:36;;;;;;;5.30;4.80;;;;;;;7.84;69.82;101210.06;109331;1271;22005;-81
2023/05/07 06:54:05;;;;;;;5.10;4.60;;;;;;;7.86;69.81;101209.88;109513;1269;22003;-79
2023/05/07 06:56:37;;;;;;;5.30;4.80;;;;;;;7.88;69.83;101211.40;109556;1269;21979;-81
2023/05/07 06:59:11;;;;;;;8.80;5.70;;;;;;;7.90;69.72;101208.08;109642;1269;22021;-80
2023/05/07 07:01:41;;;;;;;7.00;5.30;;;;;;;7.92;69.65;101212.74;110128;1269;23032;-79
2023/05/07 07:04:12;;;;;;;8.80;5.20;;;;;;;7.92;69.62;101216.72;109793;1269;21995;-79
2023/05/07 07:06:42;;;;;;;7.50;5.60;;;;;;;7.97;69.70;101218.38;110094;1269;23637;-78
2023/05/07 07:09:15;;;;;;;7.60;6.60;;;;;;;8.03;69.55;101215.89;109866;1269;21977;-80
2023/05/07 07:11:47;;;;;;;6.00;5.20;;;;;;;8.11;69.58;101218.55;109859;1270;21984;-80
2023/05/07 07:14:15;;;;;;;5.40;4.40;;;;;;;8.18;69.45;101224.17;109355;1274;22012;-79
2023/05/07 07:16:48;;;;;;;5.30;4.70;;;;;;;8.21;69.13;101224.98;109538;1270;21991;-81
2023/05/07 07:19:18;;;;;;;5.80;4.90;;;;;;;8.24;68.91;101227.55;109477;1275;24521;-81
2023/05/07 07:21:54;;;;;;;7.00;5.90;;;;;;;8.27;68.80;101223.19;109765;1273;22310;-81
2023/05/07 07:24:31;;;;;;;5.50;4.90;;;;;;;8.31;68.84;101223.81;109555;1276;22034;-82
2023/05/07 07:27:10;;;;;;;7.20;5.20;;;;;;;8.38;68.55;101226.49;109436;1276;21974;-79
2023/05/07 07:29:49;;;;;;;6.80;6.10;;;;;;;8.41;68.30;101226.63;109053;1282;22031;-81
2023/05/07 07:32:32;;;;;;;11.30;7.70;;;;;;;8.48;68.20;101229.66;109063;1278;22010;-82
2023/05/07 07:35:12;;;;;;;10.30;6.10;;;;;;;8.49;67.58;101230.86;109368;1279;22005;-81
2023/05/07 07:37:48;;;;;;;8.70;5.60;;;;;;;8.47;67.42;101233.67;109209;1278;21951;-82
2023/05/07 07:40:21;;;;;;;6.20;5.60;;;;;;;8.43;67.31;101235.98;108996;1284;21973;-82
2023/05/07 07:42:54;;;;;;;13.40;7.60;;;;;;;8.41;67.22;101237.22;108923;1282;21997;-82
2023/05/07 07:45:40;;;;;;;6.50;5.90;;;;;;;8.36;67.23;101245.42;108842;1285;23119;-83
2023/05/07 07:48:15;;;;;;;11.60;7.90;;;;;;;8.32;67.50;101250.69;109115;1279;21995;-83
2023/05/07 07:50:56;;;;;;;10.80;5.60;;;;;;;8.37;67.92;101256.50;109072;1279;21999;-82
2023/05/07 07:53:39;;;;;;;7.80;5.90;;;;;;;8.41;67.48;101260.29;109085;1283;22130;-81
2023/05/07 07:56:29;;;;;;;7.50;5.90;;;;;;;8.31;67.11;101257.11;108994;1279;22163;-82
2023/05/07 07:59:09;;;;;;;13.20;7.80;;;;;;;8.25;67.35;101255.11;109156;1279;24656;-80
2023/05/07 08:01:51;;;;;;;5.80;4.90;;;;;;;8.31;67.45;101255.39;109055;1279;22018;-82
2023/05/07 08:04:56;;;;;;;7.70;5.40;;;;;;;8.33;67.30;101259.34;109669;1275;21991;-84
2023/05/07 08:08:01;;;;;;;6.60;5.80;;;;;;;8.24;66.89;101268.66;109443;1275;22009;-81
2023/05/07 08:10:53;;;;;;;8.30;7.10;;;;;;;8.13;67.10;101275.20;109838;1269;21965;-84
2023/05/07 08:13:40;;;;;;;7.60;5.80;;;;;;;8.06;67.04;101284.14;109279;1271;22038;-82
2023/05/07 08:16:20;;;;;;;11.90;6.80;;;;;;;8.03;67.25;101285.91;109212;1278;22035;-80
2023/05/07 08:19:11;;;;;;;6.00;4.30;;;;;;;8.11;67.63;101285.30;109293;1278;23618;-82
2023/05/07 08:21:57;;;;;;;5.70;4.00;;;;;;;8.15;67.50;101288.54;109159;1282;23036;-84
2023/05/07 08:24:45;;;;;;;7.90;5.30;;;;;;;8.15;67.37;101292.52;109156;1277;22022;-83
2023/05/07 08:27:45;;;;;;;9.40;6.80;;;;;;;8.14;67.29;101295.31;109390;1282;21858;-82
2023/05/07 08:30:18;;;;;;;7.00;4.80;;;;;;;8.15;67.35;101291.48;109030;1282;21992;-82
2023/05/07 08:33:07;;;;;;;6.90;5.10;;;;;;;8.24;67.42;101289.64;109138;1267;22082;-85
2023/05/07 08:35:42;;;;;;;7.00;4.70;;;;;;;8.26;67.25;101291.88;109199;1278;22985;-82
2023/05/07 08:38:17;;;;;;;6.80;4.40;;;;;;;8.22;67.20;101293.48;109281;1279;21874;-83
2023/05/07 08:41:13;;;;;;;6.20;4.30;;;;;;;8.28;67.49;101296.17;109623;1274;22003;-84
2023/05/07 08:44:15;;;;;;;4.30;3.90;;;;;;;8.42;67.65;101295.67;109609;1277;22116;-84
2023/05/07 08:47:00;;;;;;;6.70;5.00;;;;;;;8.56;67.66;101301.71;109321;1278;22069;-82
2023/05/07 08:49:42;;;;;;;4.10;3.70;;;;;;;8.69;67.38;101302.06;109443;1277;22053;-81
2023/05/07 08:52:19;;;;;;;10.10;4.80;;;;;;;8.82;67.50;101300.31;109670;1274;23647;-81
2023/05/07 08:55:00;;;;;;;5.40;4.90;;;;;;;9.01;67.25;101299.14;109414;1275;22010;-85
2023/05/07 08:57:48;;;;;;;8.80;5.70;;;;;;;9.17;67.18;101300.44;109508;1275;22744;-81
2023/05/07 09:00:23;;;;;;;5.80;4.60;;;;;;;9.36;67.05;101302.02;109666;1275;23650;-83
2023/05/07 09:03:13;;;;;;;5.50;4.60;;;;;;;9.54;66.22;101305.86;109809;1274;22015;-82
2023/05/07 09:05:54;;;;;;;6.10;4.50;;;;;;;9.55;65.10;101305.50;109282;1279;21960;-82
2023/05/07 09:08:28;;;;;;;5.60;4.10;;;;;;;9.54;64.83;101311.42;109345;1280;21997;-82
2023/05/07 09:11:01;;;;;;;5.00;3.60;;;;;;;9.50;64.29;101316.52;108919;1274;22048;-82
2023/05/07 09:13:48;;;;;;;4.80;4.00;;;;;;;9.44;64.20;101322.04;108973;1284;22995;-82
2023/05/07 09:19:48;;;;;;;6.10;4.30;;;;;;;9.49;64.31;101322.46;108735;1282;22029;-84
2023/05/07 09:22:22;;;;;;;6.00;3.80;;;;;;;9.51;63.89;101329.73;108807;1285;22010;-80
2023/05/07 09:25:47;;;;;;;6.50;5.60;;;;;;;9.44;63.78;101334.02;109227;1280;22020;-81
2023/05/07 09:28:33;;;;;;;5.30;3.30;;;;;;;9.45;63.99;101335.73;109084;1279;21974;-83
2023/05/07 09:31:04;;;;;;;6.70;3.90;;;;;;;9.51;63.89;101328.33;109696;1280;22006;-81
2023/05/07 09:33:44;;;;;;;4.00;3.30;;;;;;;9.59;63.81;101324.90;109300;1276;22000;-81
2023/05/07 09:36:25;;;;;;;4.10;3.70;;;;;;;9.65;63.70;101324.96;109900;1269;24361;-79
2023/05/07 09:39:13;;;;;;;5.60;5.10;;;;;;;9.70;63.47;101328.00;110182;1270;23760;-80
2023/05/07 09:41:54;;;;;;;10.50;9.40;;;;;;;9.70;63.09;101329.55;109914;1270;21979;-82
2023/05/07 09:44:50;;;;;;;5.30;4.50;;;;;;;9.70;62.95;101336.15;109919;1269;21983;-83
2023/05/07 09:47:37;;;;;;;4.40;3.60;;;;;;;9.62;62.46;101342.05;110247;1269;22009;-82
2023/05/07 09:50:59;;;;;;;6.70;3.50;;;;;;;9.49;62.65;101337.42;109851;1269;21992;-81
2023/05/07 09:53:47;;;;;;;7.10;3.70;;;;;;;9.48;62.95;101339.16;109938;1269;22012;-83
2023/05/07 09:56:37;;;;;;;4.60;3.40;;;;;;;9.61;63.47;101334.05;109847;1270;22007;-81
2023/05/07 09:59:36;;;;;;;5.10;3.50;;;;;;;9.83;63.38;101336.79;110045;1261;23075;-82
2023/05/07 10:02:33;;;;;;;4.80;3.60;;;;;;;9.91;62.54;101340.81;109951;1267;24063;-84
2023/05/07 10:05:20;;;;;;;11.60;5.40;;;;;;;9.90;62.03;101339.60;110191;1269;22011;-85
2023/05/07 10:08:03;;;;;;;3.90;3.30;;;;;;;9.96;61.77;101344.72;109912;1270;22470;-82
2023/05/07 10:10:56;;;;;;;7.30;3.40;;;;;;;9.90;61.27;101339.95;109918;1269;22257;-81
2023/05/07 10:14:10;;;;;;;6.10;4.10;;;;;;;9.87;61.28;101341.73;109963;1267;21998;-81
2023/05/07 10:17:13;;;;;;;4.40;3.50;;;;;;;9.90;61.21;101344.14;109987;1264;23685;-82
2023/05/07 10:19:55;;;;;;;5.40;3.60;;;;;;;9.90;60.92;101348.83;109943;1269;22019;-80
2023/05/07 10:22:59;;;;;;;5.30;3.70;;;;;;;9.88;61.08;101349.04;109551;1274;22298;-81
2023/05/07 10:25:37;;;;;;;4.70;3.50;;;;;;;9.91;61.30;101348.46;109745;1273;21988;-81
2023/05/07 10:28:13;;;;;;;9.30;4.10;;;;;;;10.06;61.42;101347.48;109564;1274;22070;-81
2023/05/07 10:31:06;;;;;;;5.70;4.30;;;;;;;10.20;61.29;101348.94;109647;1274;22009;-82
2023/05/07 10:33:52;;;;;;;5.00;4.50;;;;;;;10.33;61.14;101355.30;109821;1274;22940;-81
2023/05/07 10:36:51;;;;;;;4.70;3.60;;;;;;;10.36;60.53;101356.64;109928;1273;22005;-82
2023/05/07 10:39:24;;;;;;;5.20;3.90;;;;;;;10.32;60.15;101352.36;109452;1274;21999;-82
2023/05/07 10:43:10;;;;;;;6.60;3.60;;;;;;;10.29;59.97;101352.59;110267;1269;23653;-82
2023/05/07 10:47:59;;;;;;;5.00;4.10;;;;;;;10.12;60.20;101351.36;110483;1275;22049;-81
2023/05/07 10:52:41;;;;;;;;;;;;;;;;;;;;;
2023/05/07 10:55:45;;;;;;;5.30;2.80;;;;;;;10.33;60.82;101358.96;109009;1285;22420;-83
2023/05/07 10:59:34;;;;;;;3.90;3.00;;;;;;;10.39;60.21;101362.84;109511;1287;23034;-83
2023/05/07 11:03:02;;;;;;;4.30;3.90;;;;;;;10.42;60.04;101360.36;108710;1289;21891;-83
2023/05/07 11:06:27;;;;;;;4.90;4.20;;;;;;;10.42;59.63;101363.14;108283;1294;22070;-82
2023/05/07 11:09:11;;;;;;;5.00;3.90;;;;;;;10.36;59.39;101363.43;108360;1294;22079;-80
2023/05/07 11:11:51;;;;;;;6.10;3.90;;;;;;;10.39;59.63;101368.41;108319;1292;22144;-82
2023/05/07 11:15:11;;;;;;;3.90;3.40;;;;;;;10.49;59.79;101369.95;108168;1294;22070;-82
2023/05/07 11:17:59;;;;;;;4.10;3.40;;;;;;;10.71;59.84;101368.59;107963;1290;23133;-83
2023/05/07 11:20:52;;;;;;;4.00;3.00;;;;;;;10.97;59.56;101373.58;107908;1298;21984;-82
2023/05/07 11:23:35;;;;;;;3.30;3.00;;;;;;;11.11;58.71;101378.14;108296;1292;22005;-81
2023/05/07 11:26:16;;;;;;;3.80;3.10;;;;;;;11.06;57.65;101377.73;108600;1290;24276;-81
2023/05/07 11:28:47;;;;;;;3.40;3.00;;;;;;;10.93;57.07;101382.21;108924;1282;21998;-80
2023/05/07 11:31:32;;;;;;;4.80;3.30;;;;;;;10.76;57.12;101385.71;109231;1277;23217;-80
2023/05/07 11:34:06;;;;;;;3.50;3.00;;;;;;;10.59;57.26;101386.80;109212;1278;22062;-81
2023/05/07 11:36:46;;;;;;;3.80;2.80;;;;;;;10.49;57.46;101388.21;109411;1277;22452;-81
2023/05/07 11:39:54;;;;;;;3.80;3.40;;;;;;;10.41;57.67;101389.77;109209;1278;21968;-81
2023/05/07 11:42:35;;;;;;;3.40;3.10;;;;;;;10.31;57.70;101388.92;109291;1276;22010;-83
2023/05/07 11:45:14;;;;;;;3.60;3.30;;;;;;;10.28;57.89;101388.28;109495;1277;22503;-80
2023/05/07 11:47:50;;;;;;;4.00;3.40;;;;;;;10.26;58.15;101389.88;109632;1276;21986;-80
2023/05/07 11:50:25;;;;;;;3.50;2.90;;;;;;;10.26;58.32;101389.70;109684;1274;23740;-81
2023/05/07 11:53:13;;;;;;;4.50;3.00;;;;;;;10.20;58.43;101387.73;109836;1270;22159;-82
2023/05/07 11:55:58;;;;;;;;;;;;;;;10.16;58.60;101386.39;109881;1269;21949;-81
2023/05/07 11:58:37;;;;;;;5.40;2.70;;;;;;;10.11;59.21;101389.12;109979;1269;21965;-81
2023/05/07 12:01:15;;;;;;;4.30;3.30;;;;;;;10.19;59.62;101391.77;110047;1269;22834;-83
2023/05/07 12:03:54;;;;;;;5.30;3.20;;;;;;;10.30;59.75;101395.91;110317;1269;22030;-82
2023/05/07 12:06:37;;;;;;;4.20;3.30;;;;;;;10.48;59.96;101390.67;110009;1269;22738;-82
2023/05/07 12:09:11;;;;;;;6.10;3.90;;;;;;;10.70;59.94;101391.93;110023;1269;22024;-83
2023/05/07 12:12:04;;;;;;;4.90;3.90;;;;;;;10.97;59.92;101389.77;109815;1270;22349;-82
2023/05/07 12:14:40;;;;;;;3.50;3.10;;;;;;;11.18;59.02;101391.04;109498;1277;22055;-81
2023/05/07 12:17:17;;;;;;;3.90;3.00;;;;;;;11.25;58.27;101392.27;109532;1276;22465;-86
2023/05/07 12:19:53;;;;;;;3.40;2.90;;;;;;;11.23;57.97;101388.48;109590;1276;22093;-85
2023/05/07 12:22:27;;;;;;;6.20;3.00;;;;;;;11.32;58.11;101390.19;109561;1276;23672;-85